Station: Nuriootpa

  Atmospheric Gas Attenuation - ITU Rec 676-11   --------------- db/100km ---------------
Date Time Temp RH % AH g/m3 Dew Point Wind Direction Speed kph Gust kph Barometer mB Rainfall Since 9am 24GHz 47GHz 76GHz 122GHz 134GHz 241GHz
13 09:10 7.1 7.2 0 0 1027.9 0
13 09:00 6.8 100 7.65 6.8 0 0 1028.2 0 17.9 27.0 40.1 104.9 95.4 326.9
13 08:50 5.8 5.9 0 0 1027.7 0.8
13 08:40 5.6 5.7 0 0 1027.5 0.8
13 08:30 4.8 100 6.71 4.8 0 0 1027.8 0.8 15.9 25.9 37.0 96.7 84.5 288.2
13 08:20 3.8 3.9 0 0 1027.2 0.8
13 08:10 3.2 3.3 0 0 1027.3 0.8
13 08:00 2.8 100 5.87 2.8 2 6 1027.6 0.8 14.2 25.1 34.3 89.5 74.8 253.9
13 07:50 2.8 2.9 4 6 1027.2 0.8
13 07:40 2.4 2.5 6 7 1027 0.8
13 07:30 2.3 2.4 7 9 1027.1 0.8
13 07:20 2.3 2.4 0 4 1027 0.8
13 07:10 2.8 2.9 6 7 1027.1 0.8
13 07:00 2.5 100 5.75 2.5 2 7 1027.3 0.8 13.9 24.9 33.9 88.5 73.4 249.0
13 06:50 2.7 2.8 0 0 1026.7 0.8
13 06:40 2.8 2.9 0 0 1026.6 0.8
13 06:30 3.3 100 6.07 3.3 0 0 1027 0.8 14.6 25.2 34.9 91.1 77.0 261.9
13 06:20 3.8 3.9 0 0 1026.5 0.8
13 06:10 3.4 3.5 0 0 1026.3 0.8
13 06:00 3.6 100 6.2 3.6 0 0 1026.6 0.8 14.9 25.4 35.3 92.2 78.5 267.2
13 05:50 4.5 4.6 0 0 1026 0.6
13 05:40 3.9 4 7 7 1026 0.6
13 05:30 4.4 100 6.53 4.4 2 7 1026.3 0.6 15.6 25.7 36.4 95.0 82.3 280.5
13 05:20 4.4 4.5 0 0 1025.9 0.6
13 05:10 4.2 4.3 2 7 1025.9 0.6
13 04:50 5.2 5.3 7 9 1025.9 0.6
13 04:40 5.1 5.2 6 6 1025.7 0.6
13 04:30 5.3 100 6.94 5.3 6 9 1026.2 0.6 16.4 26.1 37.7 98.5 87.0 297.3
13 04:20 6 6.1 6 6 1025.6 0.6
13 04:10 6.5 6.6 7 9 1025.6 0.6
13 04:00 6.4 100 7.46 6.4 11 15 1026.1 0.6 17.5 26.7 39.4 103.0 93.0 318.6
13 03:50 6.6 6.7 7 7 1025.5 0.6
13 03:40 7.7 7.8 7 9 1025.4 0.6
13 03:30 7.8 100 8.16 7.8 2 11 1026 0.6 18.9 27.5 41.6 109.1 101.2 347.3
13 03:20 6.7 6.8 0 0 1025.5 0.6
13 03:10 6.7 6.8 0 0 1025.5 0.6
13 03:00 6.5 100 7.5 6.5 6 9 1025.9 0.6 17.6 26.7 39.5 103.3 93.5 320.1
13 02:50 6.4 6.5 7 9 1025.3 0.6
13 02:40 6 6.1 6 7 1025.3 0.6
13 02:30 7 100 7.75 7 6 9 1025.6 0.6 18.1 27.0 40.3 105.5 96.4 330.3
13 02:20 6.1 6.2 2 7 1025.2 0.6
13 02:10 6.3 6.4 0 0 1025.3 0.6
13 02:00 6.3 100 7.41 6.3 0 0 1025.8 0.6 17.4 26.6 39.2 102.5 92.4 316.4
13 01:50 6.2 6.3 0 0 1025.2 0.6
13 01:40 5.8 5.9 0 0 1025.2 0.6
13 01:30 5.4 100 6.98 5.4 6 9 1025.8 0.6 16.5 26.1 37.8 98.8 87.4 298.8
13 01:20 5.3 5.4 0 0 1025.2 0.6
13 01:10 5.1 5.2 0 0 1025.1 0.6
13 01:00 4.5 100 6.58 4.5 0 0 1025.5 0.6 15.7 25.7 36.5 95.3 82.8 282.4
13 00:50 4.9 5 0 0 1025.1 0.6
13 00:40 4.1 4.2 6 6 1025.1 0.6
13 00:30 4.2 100 6.45 4.2 6 7 1025.4 0.6 15.4 25.6 36.1 94.2 81.3 277.1
13 00:20 4.2 4.3 7 7 1025.1 0.6
13 00:10 4.1 4.2 0 0 1025.2 0.6
13 00:00 4.2 100 6.45 4.2 0 2 1025.5 0.6 15.4 25.6 36.1 94.2 81.3 277.1
12 23:50 3.9 4 0 0 1025.1 0.6
12 23:40 4.1 4.2 6 7 1025.1 0.6
12 23:30 4.3 100 6.49 4.3 7 11 1025.4 0.6 15.5 25.6 36.2 94.5 81.7 278.7
12 23:20 4.2 4.3 0 0 1024.9 0.6
12 23:10 4 4.1 0 0 1024.8 0.6
12 23:00 4.4 100 6.53 4.4 2 13 1025.2 0.6 15.6 25.6 36.3 94.8 82.2 280.2
12 22:50 3.6 3.7 0 0 1024.7 0.6
12 22:40 4.1 4.2 0 0 1024.8 0.6
12 22:30 4.4 100 6.53 4.4 0 0 1025.1 0.6 15.6 25.6 36.3 94.8 82.2 280.2
12 22:20 4.2 4.3 0 0 1024.7 0.6
12 22:10 4.4 4.5 0 0 1024.6 0.6
12 22:00 4.7 100 6.67 4.7 6 9 1024.9 0.6 15.8 25.8 36.7 96.0 83.8 285.9
12 21:50 4.6 4.7 7 9 1024.6 0.6
12 21:40 4.3 100 6.49 4.3 7 7 1024.7 0.6 15.5 25.6 36.2 94.5 81.7 278.5
12 21:30 4.7 100 6.67 4.7 0 0 1025.1 0.4 15.8 25.8 36.8 96.1 83.8 286.0
12 21:20 4.9 100 6.76 4.9 0 0 1024.7 0.4 16.0 25.9 37.0 96.8 84.8 289.6
12 21:10 5.5 5.6 0 0 1024.7 0.4
12 21:00 5.3 100 6.94 5.3 0 0 1025.1 0.4 16.4 26.1 37.6 98.4 86.9 297.0
12 20:50 5.1 100 6.85 5.1 0 0 1024.7 0.4 16.2 26.0 37.3 97.6 85.9 293.2
12 20:40 5.2 100 6.89 5.2 0 0 1024.6 0.4 16.3 26.0 37.4 97.9 86.3 294.8
12 20:30 5.8 100 7.17 5.8 7 9 1024.9 0.4 16.9 26.3 38.4 100.3 89.6 306.3
12 20:20 6 100 7.26 6 7 7 1024.4 0.4 17.1 26.4 38.6 101.0 90.6 309.9
12 20:10 6.6 100 7.55 6.6 7 7 1024.2 0.4 17.7 26.7 39.6 103.6 93.9 321.7
12 20:00 7.2 100 7.85 7.2 9 9 1024.5 0.4 18.3 27.0 40.6 106.2 97.4 334.1
12 19:50 7.4 100 7.96 7.4 7 9 1023.9 0.4 18.5 27.2 40.9 107.1 98.7 338.5
12 19:40 7.2 100 7.85 7.2 11 11 1023.9 0.4 18.3 27.0 40.5 106.2 97.4 333.9
12 19:30 7.4 100 7.96 7.4 11 15 1024.2 0.4 18.5 27.2 40.9 107.2 98.7 338.6
12 19:20 7.1 100 7.8 7.1 11 11 1023.6 0.4 18.2 27.0 40.3 105.7 96.8 331.8
12 19:10 7.5 100 8.01 7.5 7 7 1023.5 0.4 18.6 27.2 41.0 107.5 99.2 340.5
12 19:00 7.7 100 8.11 7.7 9 11 1023.8 0.4 18.8 27.3 41.4 108.4 100.4 344.6
12 18:50 8 100 8.27 8 9 9 1023.2 0.4 19.2 27.5 41.9 109.8 102.3 351.1
12 18:40 8.1 100 8.32 8.1 9 9 1023.1 0.4 19.3 27.5 42.0 110.2 102.8 353.1
12 18:30 8.2 100 8.38 8.2 9 13 1023.4 0.4 19.4 27.6 42.3 110.8 103.6 355.7
12 18:20 8.4 100 8.49 8.4 9 11 1022.8 0.4 19.6 27.7 42.6 111.7 104.8 360.1
12 18:10 8.9 100 8.76 8.9 7 9 1022.7 0.4 20.2 28.0 43.5 114.1 108.0 371.2
12 18:00 9.1 100 8.88 9.1 6 7 1023 0.4 20.4 28.2 43.9 115.3 109.4 376.3
12 17:50 9.2 100 8.93 9.2 7 7 1022.4 0.4 20.5 28.2 44.1 115.6 110.0 378.2
12 17:40 9.3 100 8.99 9.3 7 7 1022.2 0.4 20.6 28.3 44.2 116.1 110.7 380.6
12 17:30 9.7 100 9.22 9.7 7 9 1022.4 0.4 21.1 28.6 45.0 118.2 113.4 390.3
12 17:20 10 99 9.3 9.9 7 9 1021.8 0.4 21.3 28.6 45.2 118.6 114.0 392.6
12 17:10 10.6 97 9.47 10.1 13 13 1021.7 0.4 21.6 28.7 45.6 119.7 115.6 398.0
12 17:00 10.5 98 9.51 10.2 7 11 1022 0.4 21.7 28.8 45.8 120.3 116.3 400.6
12 16:50 10.8 97 9.59 10.3 7 7 1021.6 0.4 21.9 28.8 46.0 120.8 117.0 402.9
12 16:40 11 96 9.61 10.4 11 13 1021.5 0.4 21.9 28.8 45.9 120.7 116.9 402.9
12 16:30 11.4 95 9.75 10.6 13 22 1021.8 0.4 22.2 28.9 46.3 121.7 118.4 407.9

Last Refresh: 13-Jul-2020 09:28:42

Most of the information presented on this site is sourced from the Bureau of Meteorology.  Copyright in all material sourced from the Bureau of Meteorology resides with the Commonwealth of Australia.